Time;durP1;ratioP1;P1;durP2;ratioP2;P2;SDS_P1;SDS_P2;PMS_P1;PMS_P2;Temp;Humidity;BMP_temperature;BMP_pressure;BME280_temperature;BME280_humidity;BME280_pressure;Samples;Min_cycle;Max_cycle;Signal;HPM_P1;HPM_P2
2023/07/04 00:01:11;;;;;;;12.52;4.97;;;;;;;15.26;100.00;93171.16;5054526;28;20020;-80
2023/07/04 00:03:39;;;;;;;5.35;4.82;;;;;;;15.21;100.00;93164.94;5045026;28;20072;-80
2023/07/04 00:06:06;;;;;;;5.05;4.32;;;;;;;15.15;100.00;93148.94;5049821;28;20553;-79
2023/07/04 00:08:35;;;;;;;6.15;4.70;;;;;;;15.15;100.00;93111.00;5053315;28;20025;-80
2023/07/04 00:11:02;;;;;;;4.82;4.15;;;;;;;15.14;100.00;93104.91;5052478;28;20029;-79
2023/07/04 00:13:29;;;;;;;8.52;4.13;;;;;;;15.15;100.00;93095.94;5052440;28;20036;-79
2023/07/04 00:15:55;;;;;;;4.28;3.92;;;;;;;15.15;100.00;93090.63;5041130;28;20107;-80
2023/07/04 00:18:23;;;;;;;5.93;4.05;;;;;;;15.13;100.00;93060.88;5052379;28;20020;-79
2023/07/04 00:20:55;;;;;;;9.00;4.53;;;;;;;15.08;100.00;93046.75;5050674;28;20018;-80
2023/07/04 00:23:25;;;;;;;5.32;4.70;;;;;;;15.07;100.00;93013.34;5054345;28;20053;-79
2023/07/04 00:25:55;;;;;;;6.70;4.43;;;;;;;15.08;100.00;93004.34;5053834;28;20068;-80
2023/07/04 00:28:21;;;;;;;5.60;4.07;;;;;;;15.04;100.00;92991.59;5050588;28;20591;-80
2023/07/04 00:30:48;;;;;;;6.78;3.97;;;;;;;15.03;100.00;92989.16;5041504;28;20080;-80
2023/07/04 00:33:13;;;;;;;7.55;4.78;;;;;;;15.02;100.00;92991.00;5043930;28;20031;-80
2023/07/04 00:35:40;;;;;;;6.50;4.20;;;;;;;14.99;100.00;92996.75;5048191;28;20033;-80
2023/07/04 00:38:05;;;;;;;4.75;4.20;;;;;;;14.93;100.00;92981.81;5046019;28;20029;-81
2023/07/04 00:40:31;;;;;;;6.25;4.30;;;;;;;14.93;100.00;92973.88;5041236;28;20470;-80
2023/07/04 00:43:03;;;;;;;6.15;4.03;;;;;;;14.94;100.00;92956.94;5048318;28;20088;-81
2023/07/04 00:45:33;;;;;;;4.90;4.50;;;;;;;14.95;100.00;92937.34;5054158;28;20033;-81
2023/07/04 00:48:03;;;;;;;5.80;4.68;;;;;;;14.95;100.00;92931.25;5046663;28;20017;-80
2023/07/04 00:50:32;;;;;;;8.65;3.97;;;;;;;14.89;100.00;92925.84;5052009;28;20649;-81
2023/07/04 00:53:02;;;;;;;7.65;4.38;;;;;;;14.83;100.00;92910.91;5044484;28;20036;-81
2023/07/04 00:55:33;;;;;;;5.75;4.28;;;;;;;14.80;100.00;92919.34;5040970;28;20041;-80
2023/07/04 00:58:04;;;;;;;4.45;4.05;;;;;;;14.81;100.00;92922.78;5049229;28;20053;-81
2023/07/04 01:00:31;;;;;;;5.38;4.40;;;;;;;14.78;100.00;92918.78;5051386;28;20879;-80
2023/07/04 01:03:14;;;;;;;8.93;4.32;;;;;;;14.72;100.00;92886.09;5050758;28;20078;-80
2023/07/04 01:05:51;;;;;;;4.55;4.20;;;;;;;14.76;100.00;92817.56;5053935;28;20071;-80
2023/07/04 01:08:24;;;;;;;5.13;4.13;;;;;;;14.76;100.00;92806.97;5052236;28;20032;-80
2023/07/04 01:10:51;;;;;;;8.43;4.30;;;;;;;14.71;100.00;92812.19;5050041;28;20051;-80
2023/07/04 01:13:43;;;;;;;4.53;4.13;;;;;;;14.70;100.00;92786.69;5036518;28;20022;-81
2023/07/04 01:16:26;;;;;;;4.45;4.15;;;;;;;14.59;100.00;92756.63;5048771;28;20037;-80
2023/07/04 01:18:56;;;;;;;4.63;4.15;;;;;;;14.60;100.00;92723.81;5050630;28;20028;-80
2023/07/04 01:21:25;;;;;;;4.32;3.92;;;;;;;14.64;100.00;92716.19;5033733;28;20021;-81
2023/07/04 01:24:22;;;;;;;7.68;4.13;;;;;;;14.66;100.00;92722.84;5046064;28;20028;-81
2023/07/04 01:26:49;;;;;;;6.40;4.10;;;;;;;14.70;100.00;92712.56;5053564;28;20025;-80
2023/07/04 01:29:17;;;;;;;5.85;4.53;;;;;;;14.68;100.00;92714.66;5047446;28;20033;-80
2023/07/04 01:31:44;;;;;;;5.65;5.05;;;;;;;14.70;100.00;92708.09;5043861;28;20028;-81
2023/07/04 01:34:11;;;;;;;7.05;4.30;;;;;;;14.66;100.00;92691.09;5044831;28;20025;-81
2023/07/04 01:36:38;;;;;;;7.63;3.95;;;;;;;14.57;100.00;92677.44;5048715;28;20079;-80
2023/07/04 01:39:05;;;;;;;5.85;4.93;;;;;;;14.57;100.00;92661.56;5047805;28;20592;-80
2023/07/04 01:41:32;;;;;;;4.53;4.05;;;;;;;14.54;100.00;92656.75;5052826;28;20107;-80
2023/07/04 01:44:06;;;;;;;5.82;4.20;;;;;;;14.55;100.00;92637.16;5048247;28;20500;-81
2023/07/04 01:46:33;;;;;;;4.60;4.20;;;;;;;14.54;100.00;92630.28;5051484;28;20028;-80
2023/07/04 01:48:59;;;;;;;7.20;4.15;;;;;;;14.54;100.00;92614.41;5051341;28;20040;-80
2023/07/04 01:51:30;;;;;;;4.93;4.40;;;;;;;14.55;100.00;92607.25;5050456;28;20037;-80
2023/07/04 01:53:56;;;;;;;4.75;4.38;;;;;;;14.55;100.00;92589.53;5050007;28;20053;-81
2023/07/04 01:56:22;;;;;;;4.57;4.20;;;;;;;14.50;100.00;92586.00;5050667;28;20021;-80
2023/07/04 01:58:48;;;;;;;9.13;4.80;;;;;;;14.50;100.00;92575.41;5049641;28;20028;-82
2023/07/04 02:01:13;;;;;;;5.88;4.28;;;;;;;14.44;100.00;92561.28;5047736;28;20133;-81
2023/07/04 02:03:39;;;;;;;6.28;4.40;;;;;;;14.43;100.00;92543.81;5041773;28;20025;-82
2023/07/04 02:06:04;;;;;;;5.32;4.40;;;;;;;14.41;100.00;92519.44;5057027;28;20033;-81
2023/07/04 02:08:29;;;;;;;5.47;4.70;;;;;;;14.42;100.00;92502.50;5048933;28;20577;-81
2023/07/04 02:10:55;;;;;;;7.57;4.43;;;;;;;14.33;100.00;92489.72;5048407;28;20021;-80
2023/07/04 02:13:20;;;;;;;7.78;4.13;;;;;;;14.29;100.00;92466.63;5048155;28;20029;-80
2023/07/04 02:15:46;;;;;;;4.63;4.20;;;;;;;14.32;100.00;92442.31;5052893;28;20999;-80
2023/07/04 02:18:11;;;;;;;4.93;3.97;;;;;;;14.30;100.00;92421.41;5056398;28;20025;-81
2023/07/04 02:20:36;;;;;;;4.78;4.38;;;;;;;14.30;100.00;92394.94;5055514;28;20860;-81
2023/07/04 02:23:02;;;;;;;4.80;4.13;;;;;;;14.32;100.00;92358.47;5051366;28;20182;-81
2023/07/04 02:25:27;;;;;;;6.68;4.72;;;;;;;14.35;100.00;92329.91;5046544;28;20025;-81
2023/07/04 02:27:53;;;;;;;4.90;4.40;;;;;;;14.32;100.00;92308.19;5056592;28;20438;-81
2023/07/04 02:30:18;;;;;;;4.90;4.43;;;;;;;14.31;100.00;92282.78;5051718;28;20029;-81
2023/07/04 02:32:44;;;;;;;4.75;4.32;;;;;;;14.30;100.00;92254.72;5055631;28;20090;-81
2023/07/04 02:35:09;;;;;;;4.80;4.40;;;;;;;14.27;100.00;92227.94;5056830;28;20052;-81
2023/07/04 02:37:35;;;;;;;8.38;4.45;;;;;;;14.17;100.00;92208.28;5055312;28;20021;-80
2023/07/04 02:40:00;;;;;;;5.53;4.20;;;;;;;14.19;100.00;92184.22;5056876;28;20033;-80
2023/07/04 02:42:26;;;;;;;4.40;4.00;;;;;;;14.17;100.00;92147.47;5055713;28;20059;-81
2023/07/04 02:44:51;;;;;;;5.35;3.97;;;;;;;14.14;100.00;92108.25;5056655;28;20024;-81
2023/07/04 02:47:18;;;;;;;5.97;4.45;;;;;;;14.12;100.00;92085.78;5055950;28;20029;-82
2023/07/04 02:49:43;;;;;;;6.97;4.30;;;;;;;14.11;100.00;92076.25;5056810;28;20021;-81
2023/07/04 02:52:09;;;;;;;4.40;4.10;;;;;;;14.08;100.00;92061.66;5046237;28;20024;-80
2023/07/04 02:54:35;;;;;;;5.47;4.75;;;;;;;14.03;100.00;92038.63;5055476;28;20087;-82
2023/07/04 02:57:00;;;;;;;6.43;5.75;;;;;;;13.99;100.00;92013.72;5043997;28;20033;-81
2023/07/04 02:59:26;;;;;;;7.05;5.38;;;;;;;14.02;100.00;91991.28;5056493;28;20052;-81
2023/07/04 03:01:52;;;;;;;5.57;5.07;;;;;;;13.99;100.00;91925.69;5055141;28;20585;-81
2023/07/04 03:04:17;;;;;;;7.00;4.78;;;;;;;14.00;100.00;91898.19;5058721;28;20024;-82
2023/07/04 03:06:43;;;;;;;6.03;4.88;;;;;;;13.98;100.00;91877.28;5056385;28;20079;-82
2023/07/04 03:09:08;;;;;;;10.43;5.28;;;;;;;14.00;100.00;91838.16;5056087;28;20132;-80
2023/07/04 03:11:34;;;;;;;6.57;4.90;;;;;;;14.02;100.00;91819.41;5055734;28;20029;-80
2023/07/04 03:13:59;;;;;;;9.25;5.25;;;;;;;13.99;100.00;91804.06;5055866;28;20033;-81
2023/07/04 03:16:25;;;;;;;6.53;5.75;;;;;;;14.00;100.00;91772.03;5055359;28;20013;-81
2023/07/04 03:18:50;;;;;;;5.60;5.07;;;;;;;14.00;100.00;91768.63;5054615;28;20108;-82
2023/07/04 03:21:15;;;;;;;4.60;4.20;;;;;;;13.97;100.00;91762.00;5042584;28;20432;-81
2023/07/04 03:23:41;;;;;;;7.07;5.05;;;;;;;13.97;100.00;91756.69;5055110;28;20028;-82
2023/07/04 03:26:06;;;;;;;7.10;5.05;;;;;;;13.96;100.00;91754.34;5055810;28;20025;-81
2023/07/04 03:28:32;;;;;;;5.93;5.10;;;;;;;13.94;100.00;91759.88;5052616;28;20052;-81
2023/07/04 03:30:57;;;;;;;6.70;5.03;;;;;;;13.93;100.00;91746.94;5055850;28;20048;-81
2023/07/04 03:33:23;;;;;;;5.50;5.00;;;;;;;13.91;100.00;91733.94;5055774;28;20029;-81
2023/07/04 03:35:48;;;;;;;8.82;5.75;;;;;;;13.88;100.00;91710.69;5048414;28;20048;-81
2023/07/04 03:38:14;;;;;;;6.90;6.20;;;;;;;13.85;100.00;91656.47;5056060;28;20048;-81
2023/07/04 03:40:39;;;;;;;5.63;5.15;;;;;;;13.81;100.00;91626.34;5049387;28;20061;-81
2023/07/04 03:43:04;;;;;;;6.85;5.63;;;;;;;13.77;100.00;91609.41;5055082;28;20405;-81
2023/07/04 03:45:30;;;;;;;6.00;5.05;;;;;;;13.71;100.00;91571.59;5055029;28;20024;-81
2023/07/04 03:47:55;;;;;;;6.63;5.07;;;;;;;13.71;100.00;91534.59;5055306;28;20582;-80
2023/07/04 03:50:21;;;;;;;6.15;4.88;;;;;;;13.68;100.00;91514.00;5048736;28;20055;-81
2023/07/04 03:52:46;;;;;;;8.27;5.07;;;;;;;13.71;100.00;91494.19;5054899;28;20025;-81
2023/07/04 03:55:11;;;;;;;8.73;5.65;;;;;;;13.70;100.00;91488.09;5054546;28;20052;-81
2023/07/04 03:57:37;;;;;;;6.13;5.43;;;;;;;13.70;100.00;91485.44;5048270;28;20096;-81
2023/07/04 04:00:06;;;;;;;8.38;5.10;;;;;;;13.74;100.00;91457.44;5054904;28;20481;-81
2023/07/04 04:02:31;;;;;;;7.35;5.10;;;;;;;13.72;100.00;91435.75;5048433;28;20032;-82
2023/07/04 04:04:56;;;;;;;8.48;5.53;;;;;;;13.71;100.00;91422.81;5046974;28;20505;-81
2023/07/04 04:07:23;;;;;;;6.72;5.32;;;;;;;13.71;100.00;91402.47;5055220;28;20111;-80
2023/07/04 04:09:49;;;;;;;6.55;5.13;;;;;;;13.69;100.00;91358.84;5054808;28;20034;-80
2023/07/04 04:12:15;;;;;;;6.28;5.25;;;;;;;13.71;100.00;91340.91;5041570;28;20052;-81
2023/07/04 04:14:40;;;;;;;5.72;5.07;;;;;;;13.70;100.00;91316.31;5055218;28;20508;-81
2023/07/04 04:17:06;;;;;;;5.32;4.82;;;;;;;13.73;100.00;91297.28;5054309;28;20023;-82
2023/07/04 04:19:31;;;;;;;6.13;5.53;;;;;;;13.73;100.00;91289.34;5054453;28;20082;-81
2023/07/04 04:21:56;;;;;;;6.88;5.80;;;;;;;13.71;100.00;91286.19;5055518;28;20033;-80
2023/07/04 04:24:23;;;;;;;6.60;5.32;;;;;;;13.75;100.00;91281.16;5055691;28;20031;-81
2023/07/04 04:26:49;;;;;;;5.93;5.22;;;;;;;13.79;100.00;91254.97;5055011;28;20025;-81
2023/07/04 04:29:17;;;;;;;5.40;4.88;;;;;;;13.78;100.00;91253.38;5054548;28;20029;-80
2023/07/04 04:31:43;;;;;;;5.40;4.97;;;;;;;13.78;100.00;91238.31;5054693;28;20032;-80
2023/07/04 04:34:08;;;;;;;7.38;5.30;;;;;;;13.80;100.00;91217.69;5054886;28;20060;-80
2023/07/04 04:36:34;;;;;;;5.75;5.15;;;;;;;13.77;100.00;91215.59;5053677;28;20516;-82
2023/07/04 04:39:01;;;;;;;6.55;5.13;;;;;;;13.74;100.00;91195.78;5050633;28;20025;-80
2023/07/04 04:41:27;;;;;;;6.00;5.40;;;;;;;13.73;100.00;91151.91;5052012;28;20028;-81
2023/07/04 04:43:54;;;;;;;11.05;5.50;;;;;;;13.77;100.00;91132.88;5051585;28;20097;-79
2023/07/04 04:46:20;;;;;;;8.38;5.88;;;;;;;13.76;100.00;91105.66;5054240;28;20025;-79
2023/07/04 04:48:46;;;;;;;8.90;5.78;;;;;;;13.77;100.00;91085.31;5049856;28;20076;-78
2023/07/04 04:51:12;;;;;;;7.85;5.65;;;;;;;13.80;100.00;91056.47;5054096;28;20848;-79
2023/07/04 04:53:40;;;;;;;6.38;5.60;;;;;;;13.83;100.00;91031.38;5053996;28;20105;-79
2023/07/04 04:56:06;;;;;;;6.28;5.22;;;;;;;13.82;100.00;91019.22;5051725;28;20029;-78
2023/07/04 04:58:33;;;;;;;7.63;5.63;;;;;;;13.82;100.00;91006.00;5041728;28;20056;-78
2023/07/04 05:01:06;;;;;;;6.90;5.13;;;;;;;13.84;100.00;90990.66;5053704;28;20029;-83
2023/07/04 05:03:32;;;;;;;8.00;5.75;;;;;;;13.85;100.00;90985.06;5054071;28;20024;-83
2023/07/04 05:06:01;;;;;;;7.18;5.93;;;;;;;13.85;100.00;90973.72;5060916;28;20115;-83
2023/07/04 05:08:26;;;;;;;9.98;5.03;;;;;;;13.84;100.00;90978.22;5053943;28;20021;-83
2023/07/04 05:11:07;;;;;;;7.88;4.85;;;;;;;13.95;100.00;90951.69;5051593;28;20029;-82
2023/07/04 05:13:37;;;;;;;8.02;5.57;;;;;;;14.07;100.00;90930.16;5053240;28;20389;-83
2023/07/04 05:16:06;;;;;;;9.57;5.88;;;;;;;14.19;100.00;90917.34;5051552;28;20028;-83
2023/07/04 05:18:34;;;;;;;7.53;6.13;;;;;;;14.32;100.00;90878.84;5054190;28;20028;-83
2023/07/04 05:21:01;;;;;;;5.78;5.28;;;;;;;14.48;100.00;90855.66;5053396;28;20033;-84
2023/07/04 05:23:26;;;;;;;6.15;5.50;;;;;;;14.55;100.00;90861.38;5052323;28;20029;-83
2023/07/04 05:26:06;;;;;;;9.27;5.28;;;;;;;14.64;100.00;90873.94;5049139;28;20089;-83
2023/07/04 05:28:31;;;;;;;7.45;4.95;;;;;;;14.72;100.00;90894.53;5052992;28;20130;-83
2023/07/04 05:31:11;;;;;;;6.35;4.88;;;;;;;14.78;100.00;90919.06;5053962;28;20040;-83
2023/07/04 05:33:37;;;;;;;6.18;4.97;;;;;;;14.85;100.00;90960.00;5053682;28;20028;-83
2023/07/04 05:36:08;;;;;;;6.30;4.78;;;;;;;15.01;100.00;91013.53;5053501;28;20028;-84
2023/07/04 05:38:35;;;;;;;5.68;4.90;;;;;;;15.13;100.00;91052.84;5044136;28;20065;-83
2023/07/04 05:41:00;;;;;;;8.52;4.90;;;;;;;15.24;100.00;91090.59;5056158;28;20082;-83
2023/07/04 05:43:27;;;;;;;7.05;5.18;;;;;;;15.32;100.00;91150.13;5057769;28;20032;-83
2023/07/04 05:45:54;;;;;;;7.75;4.97;;;;;;;15.41;100.00;91224.47;5057327;28;20079;-83
2023/07/04 05:48:19;;;;;;;6.32;4.60;;;;;;;15.53;100.00;91285.84;5042808;28;20395;-83
2023/07/04 05:50:52;;;;;;;6.35;4.75;;;;;;;15.64;100.00;91352.78;5057845;28;20112;-83
2023/07/04 05:53:24;;;;;;;4.97;4.43;;;;;;;15.75;100.00;91422.44;5057243;28;20058;-83
2023/07/04 05:56:20;;;;;;;5.03;4.25;;;;;;;15.86;100.00;91521.25;5054833;28;21033;-83
2023/07/04 05:58:48;;;;;;;5.40;4.75;;;;;;;16.00;100.00;91628.28;5057472;28;20024;-84
2023/07/04 06:01:51;;;;;;;5.22;4.57;;;;;;;16.14;100.00;91785.03;5058101;28;20456;-81
2023/07/04 06:04:17;;;;;;;4.80;4.30;;;;;;;16.27;100.00;91878.38;5058331;28;20036;-75
2023/07/04 06:06:54;;;;;;;5.10;4.20;;;;;;;16.35;100.00;92010.50;5055620;28;20108;-79
2023/07/04 06:09:21;;;;;;;4.75;4.00;;;;;;;16.43;100.00;92088.81;5056531;28;20017;-81
2023/07/04 06:11:48;;;;;;;4.22;3.83;;;;;;;16.50;100.00;92169.00;5048504;28;20112;-77
2023/07/04 06:14:21;;;;;;;5.93;4.40;;;;;;;16.61;100.00;92228.22;5055234;28;20401;-81
2023/07/04 06:16:47;;;;;;;5.82;4.13;;;;;;;16.76;100.00;92289.28;5055859;28;20021;-80
2023/07/04 06:19:12;;;;;;;6.72;4.57;;;;;;;16.90;100.00;92326.78;5056904;28;20059;-80
2023/07/04 06:21:38;;;;;;;5.10;4.07;;;;;;;17.08;100.00;92369.09;5056898;28;20474;-80
2023/07/04 06:24:03;;;;;;;4.10;3.80;;;;;;;17.25;100.00;92416.69;5041247;28;20033;-81
2023/07/04 06:26:32;;;;;;;5.40;3.65;;;;;;;17.38;100.00;92490.63;5057055;28;20021;-81
2023/07/04 06:28:57;;;;;;;7.00;4.43;;;;;;;17.52;100.00;92564.56;5054366;28;20087;-81
2023/07/04 06:31:24;;;;;;;4.57;3.90;;;;;;;17.58;100.00;92627.38;5040485;28;20102;-80
2023/07/04 06:33:50;;;;;;;5.47;3.80;;;;;;;17.72;100.00;92684.34;5053972;28;20025;-81
2023/07/04 06:36:16;;;;;;;7.07;4.75;;;;;;;17.92;100.00;92728.06;5055681;28;20024;-80
2023/07/04 06:38:42;;;;;;;4.43;3.78;;;;;;;18.06;100.00;92780.84;5054001;28;20485;-80
2023/07/04 06:41:11;;;;;;;5.55;3.97;;;;;;;18.29;100.00;92859.47;5057020;28;20028;-78
2023/07/04 06:43:38;;;;;;;4.82;3.97;;;;;;;18.54;100.00;92919.22;5055903;28;20107;-81
2023/07/04 06:46:04;;;;;;;7.15;3.97;;;;;;;18.93;100.00;92958.06;5056961;28;20082;-79
2023/07/04 06:48:30;;;;;;;6.10;4.30;;;;;;;19.21;100.00;93084.03;5047928;28;20021;-78
2023/07/04 06:51:12;;;;;;;5.53;4.05;;;;;;;19.36;100.00;93116.13;5055927;28;20024;-79
2023/07/04 06:53:38;;;;;;;7.00;4.45;;;;;;;19.65;100.00;93171.75;5061389;28;20417;-77
2023/07/04 06:56:14;;;;;;;5.55;4.03;;;;;;;19.99;100.00;93250.66;5052672;28;20032;-80
2023/07/04 06:58:51;;;;;;;6.35;4.45;;;;;;;20.58;100.00;93345.72;5054064;28;20025;-81
2023/07/04 07:01:18;;;;;;;7.38;4.07;;;;;;;20.86;100.00;93445.28;5047894;28;20049;-81
2023/07/04 07:03:44;;;;;;;7.72;3.78;;;;;;;21.30;100.00;93505.66;5051755;28;20103;-81
2023/07/04 07:06:11;;;;;;;5.07;3.53;;;;;;;21.37;100.00;93576.84;5050530;28;20063;-80
2023/07/04 07:08:37;;;;;;;4.80;3.95;;;;;;;21.83;100.00;93613.72;5054063;28;20025;-80
2023/07/04 07:11:06;;;;;;;4.55;3.42;;;;;;;22.27;100.00;93658.84;5042552;28;20032;-80
2023/07/04 07:13:31;;;;;;;4.18;3.78;;;;;;;22.07;100.00;93757.94;5055896;28;20037;-78
2023/07/04 07:16:05;;;;;;;3.85;3.45;;;;;;;22.00;100.00;93742.91;5053201;28;20024;-77
2023/07/04 07:18:32;;;;;;;5.55;3.80;;;;;;;22.26;100.00;93771.66;5046592;28;20111;-78
2023/07/04 07:20:58;;;;;;;5.78;3.75;;;;;;;22.60;100.00;93800.75;5050529;28;20029;-72
2023/07/04 07:23:24;;;;;;;4.13;3.72;;;;;;;22.67;100.00;93884.44;5055433;28;20021;-75
2023/07/04 07:25:59;;;;;;;4.13;3.60;;;;;;;23.04;100.00;93896.09;5054246;28;20598;-76
2023/07/04 07:28:26;;;;;;;5.38;3.83;;;;;;;22.96;100.00;93904.66;5053336;28;20075;-79
2023/07/04 07:31:12;;;;;;;5.50;3.65;;;;;;;23.24;100.00;93927.56;5054835;28;20287;-76
2023/07/04 07:33:40;;;;;;;5.22;3.97;;;;;;;23.74;100.00;93932.50;5042351;28;20017;-78
2023/07/04 07:36:16;;;;;;;4.00;3.70;;;;;;;23.74;100.00;93973.56;5053992;28;20021;-79
2023/07/04 07:38:42;;;;;;;4.40;4.00;;;;;;;23.77;100.00;94006.38;5052626;28;20409;-80
2023/07/04 07:41:08;;;;;;;4.63;4.22;;;;;;;23.78;100.00;94026.78;5054907;28;20021;-79
2023/07/04 07:43:36;;;;;;;6.68;4.25;;;;;;;23.91;100.00;94031.63;5054496;28;20025;-78
2023/07/04 07:46:02;;;;;;;4.70;3.90;;;;;;;24.25;100.00;93996.22;5055424;28;20029;-78
2023/07/04 07:48:27;;;;;;;4.78;3.97;;;;;;;24.64;100.00;94050.50;5043387;28;20446;-78
2023/07/04 07:50:53;;;;;;;5.35;4.40;;;;;;;24.29;100.00;94118.28;5052330;28;20104;-78
2023/07/04 07:53:19;;;;;;;5.38;4.15;;;;;;;24.26;100.00;94093.78;5053747;28;20021;-78
2023/07/04 07:55:44;;;;;;;5.63;4.35;;;;;;;24.82;100.00;94103.78;5054055;28;20654;-77
2023/07/04 07:58:09;;;;;;;4.53;4.13;;;;;;;24.54;100.00;94156.25;5053847;28;20799;-78
2023/07/04 08:00:35;;;;;;;7.20;4.68;;;;;;;24.41;100.00;94166.44;5053223;28;20025;-78
2023/07/04 08:03:01;;;;;;;5.25;4.65;;;;;;;24.60;100.00;94120.19;5053290;28;20033;-78
2023/07/04 08:05:26;;;;;;;6.60;4.63;;;;;;;25.34;100.00;94100.19;5055344;28;20579;-77
2023/07/04 08:07:52;;;;;;;12.25;4.20;;;;;;;25.33;100.00;94158.63;5051510;28;20025;-80
2023/07/04 08:10:17;;;;;;;5.93;4.50;;;;;;;25.52;100.00;94139.19;5054995;28;20029;-78
2023/07/04 08:12:43;;;;;;;7.10;5.20;;;;;;;25.91;100.00;94145.81;5048898;28;20116;-79
2023/07/04 08:15:10;;;;;;;14.88;5.85;;;;;;;25.79;100.00;94168.47;5053665;28;20054;-79
2023/07/04 08:17:36;;;;;;;4.78;4.40;;;;;;;25.84;100.00;94164.97;5054375;28;20009;-80
2023/07/04 08:20:03;;;;;;;5.03;4.45;;;;;;;26.27;100.00;94178.00;5054568;28;20052;-81
2023/07/04 08:22:29;;;;;;;7.30;4.15;;;;;;;25.94;100.00;94226.13;5049612;28;20075;-80
2023/07/04 08:24:54;;;;;;;4.50;4.10;;;;;;;25.80;100.00;94205.13;5047381;28;20033;-78
2023/07/04 08:27:24;;;;;;;4.70;4.20;;;;;;;26.07;100.00;94209.34;5034334;28;20086;-77
2023/07/04 08:29:49;;;;;;;4.53;4.13;;;;;;;26.15;100.00;94251.94;5049422;28;20018;-78
2023/07/04 08:32:18;;;;;;;4.30;3.90;;;;;;;26.11;100.00;94295.88;5053823;28;20033;-78
2023/07/04 08:34:46;;;;;;;5.30;4.20;;;;;;;25.82;100.00;94310.78;5053875;28;20017;-80
2023/07/04 08:37:14;;;;;;;4.10;3.58;;;;;;;26.03;100.00;94217.19;5053791;28;20067;-76
2023/07/04 08:39:45;;;;;;;4.68;3.45;;;;;;;26.33;100.00;94182.31;5054042;28;20467;-77
2023/07/04 08:42:15;;;;;;;3.45;3.15;;;;;;;26.63;100.00;94244.44;5053407;28;20033;-77
2023/07/04 08:44:46;;;;;;;4.28;3.40;;;;;;;27.57;100.00;94248.91;5047073;28;20029;-79
2023/07/04 08:47:15;;;;;;;5.53;3.53;;;;;;;27.36;100.00;94261.78;5051514;28;20378;-80
2023/07/04 08:49:51;;;;;;;4.30;2.85;;;;;;;27.00;100.00;94251.25;5054066;28;20040;-81
2023/07/04 08:52:22;;;;;;;3.45;2.63;;;;;;;27.19;100.00;94256.78;5049864;28;20726;-80
2023/07/04 08:54:49;;;;;;;3.17;2.88;;;;;;;27.55;100.00;94225.97;5046067;28;20052;-79
2023/07/04 08:57:53;;;;;;;4.97;3.55;;;;;;;27.41;100.00;94214.97;5053976;28;20025;-77
2023/07/04 09:00:30;;;;;;;3.55;2.65;;;;;;;27.59;100.00;94244.00;5034565;28;20489;-78
2023/07/04 09:03:17;;;;;;;2.95;2.38;;;;;;;27.52;100.00;94264.34;5046965;28;20060;-79
2023/07/04 09:06:10;;;;;;;2.90;2.17;;;;;;;27.65;100.00;94225.84;5051945;28;20029;-78
2023/07/04 09:08:45;;;;;;;3.15;1.80;;;;;;;27.89;100.00;94295.38;5044154;28;20036;-76
2023/07/04 09:11:12;;;;;;;1.70;1.60;;;;;;;27.58;100.00;94333.50;5051768;28;20035;-77
2023/07/04 09:13:41;;;;;;;1.77;1.67;;;;;;;27.84;100.00;94334.06;5052405;28;20040;-78
2023/07/04 09:16:11;;;;;;;2.30;1.52;;;;;;;27.37;100.00;94324.72;5049290;28;20036;-77
2023/07/04 09:19:00;;;;;;;2.40;1.83;;;;;;;28.00;100.00;94277.97;5054324;28;20025;-77
2023/07/04 09:21:28;;;;;;;2.97;1.48;;;;;;;28.44;100.00;94324.81;5049170;28;20036;-75
2023/07/04 09:24:01;;;;;;;2.35;1.80;;;;;;;28.37;100.00;94369.56;5045106;28;20075;-73
2023/07/04 09:26:42;;;;;;;2.30;1.60;;;;;;;27.43;100.00;94335.19;5053610;28;20036;-73
2023/07/04 09:29:09;;;;;;;1.70;1.60;;;;;;;27.38;100.00;94337.13;5053535;28;20033;-77
2023/07/04 09:31:38;;;;;;;1.38;1.30;;;;;;;27.82;100.00;94340.88;5053683;28;20033;-77
2023/07/04 09:34:09;;;;;;;2.03;1.55;;;;;;;27.11;100.00;94378.91;5052721;28;20040;-77
2023/07/04 09:36:38;;;;;;;2.08;1.67;;;;;;;26.82;100.00;94357.97;5053865;28;20039;-78
2023/07/04 09:39:04;;;;;;;3.42;2.70;;;;;;;27.36;100.00;94298.78;5051664;28;20143;-76
2023/07/04 09:41:33;;;;;;;3.40;2.83;;;;;;;27.68;100.00;94294.78;5053979;28;20017;-75
2023/07/04 09:44:13;;;;;;;3.20;2.80;;;;;;;27.11;100.00;94247.41;5043969;28;20025;-78
2023/07/04 09:46:39;;;;;;;4.03;2.83;;;;;;;26.87;100.00;94153.63;5047088;28;20025;-77
2023/07/04 09:49:22;;;;;;;3.33;2.90;;;;;;;27.09;100.00;94138.03;5054205;28;20090;-76
2023/07/04 09:51:59;;;;;;;2.65;2.45;;;;;;;27.20;100.00;94217.06;5048645;28;20032;-77
2023/07/04 09:54:26;;;;;;;2.55;2.35;;;;;;;27.59;100.00;94305.38;5052536;28;20053;-76
2023/07/04 09:56:51;;;;;;;3.55;2.13;;;;;;;27.66;100.00;94259.13;5052617;28;20045;-76
2023/07/04 09:59:21;;;;;;;1.70;1.67;;;;;;;28.13;100.00;94270.22;5051798;28;20112;-76
2023/07/04 10:01:49;;;;;;;2.58;1.75;;;;;;;28.47;100.00;94288.25;5053192;28;20112;-77
2023/07/04 10:04:33;;;;;;;1.65;1.50;;;;;;;28.06;100.00;94321.16;5056131;28;20028;-78
2023/07/04 10:06:59;;;;;;;3.50;1.58;;;;;;;28.02;100.00;94346.09;5042064;28;20072;-76
2023/07/04 10:09:26;;;;;;;2.20;1.60;;;;;;;28.61;100.00;94310.00;5051184;28;20068;-77
2023/07/04 10:12:08;;;;;;;1.50;1.40;;;;;;;28.77;100.00;94372.88;5043857;28;20174;-77
2023/07/04 10:14:36;;;;;;;1.52;1.42;;;;;;;28.79;100.00;94384.25;5053504;28;20032;-77
2023/07/04 10:17:14;;;;;;;1.50;1.40;;;;;;;28.35;100.00;94425.84;5053339;28;20017;-77
2023/07/04 10:19:45;;;;;;;1.50;1.40;;;;;;;28.52;100.00;94365.91;5040962;28;20021;-77
2023/07/04 10:22:10;;;;;;;1.92;1.58;;;;;;;28.96;100.00;94388.38;5053008;28;20055;-77
2023/07/04 10:24:36;;;;;;;4.28;2.30;;;;;;;28.86;100.00;94313.50;5053514;28;20049;-76
2023/07/04 10:27:06;;;;;;;2.10;2.00;;;;;;;29.09;100.00;94298.28;5056370;28;20029;-77
2023/07/04 10:29:46;;;;;;;6.07;2.35;;;;;;;29.16;100.00;94325.81;5054352;28;20024;-77
2023/07/04 10:32:16;;;;;;;2.75;2.20;;;;;;;28.90;100.00;94311.03;5056985;28;20497;-77
2023/07/04 10:34:43;;;;;;;2.85;2.60;;;;;;;28.26;100.00;94303.91;5056630;28;20098;-77
2023/07/04 10:37:19;;;;;;;2.60;2.40;;;;;;;28.47;100.00;94282.03;5057344;28;20493;-77
2023/07/04 10:39:45;;;;;;;2.45;2.25;;;;;;;28.36;100.00;94289.47;5036724;28;20593;-78
2023/07/04 10:42:21;;;;;;;2.28;2.00;;;;;;;28.39;100.00;94297.00;5050987;28;20056;-78
2023/07/04 10:44:50;;;;;;;2.17;2.03;;;;;;;28.52;100.00;94309.84;5054375;28;20047;-77
2023/07/04 10:47:37;;;;;;;2.83;2.08;;;;;;;28.02;100.00;94319.03;5056163;28;20813;-77
2023/07/04 10:50:19;;;;;;;3.53;1.95;;;;;;;28.21;100.00;94295.88;5056610;28;20030;-77
2023/07/04 10:52:48;;;;;;;3.50;2.10;;;;;;;28.22;100.00;94303.72;5040634;28;20086;-77
2023/07/04 10:55:21;;;;;;;3.70;2.05;;;;;;;28.12;100.00;94268.63;5051295;28;20064;-80
2023/07/04 10:57:59;;;;;;;2.03;1.90;;;;;;;28.07;100.00;94304.63;5049831;28;20028;-77
2023/07/04 11:00:28;;;;;;;2.28;2.00;;;;;;;27.71;100.00;94305.00;5050315;28;20033;-79
2023/07/04 11:03:04;;;;;;;2.00;1.90;;;;;;;28.29;100.00;94260.88;5053822;28;20036;-81
2023/07/04 11:05:39;;;;;;;2.08;1.98;;;;;;;28.26;100.00;94312.03;5054987;28;20668;-78
2023/07/04 11:08:07;;;;;;;;;;;;;;;28.31;100.00;94266.00;5046838;28;20029;-77
2023/07/04 11:10:39;;;;;;;1.73;1.63;;;;;;;29.21;100.00;94357.44;5051467;28;19916;-78
2023/07/04 11:13:05;;;;;;;1.70;1.60;;;;;;;29.02;100.00;94427.84;5055805;28;20036;-80
2023/07/04 11:15:35;;;;;;;4.53;1.70;;;;;;;28.81;100.00;94373.94;5056110;28;20037;-79
2023/07/04 11:18:01;;;;;;;1.70;1.60;;;;;;;28.69;100.00;94338.34;5051052;28;20061;-80
2023/07/04 11:20:38;;;;;;;1.83;1.73;;;;;;;28.84;100.00;94316.50;5044967;28;20513;-80
2023/07/04 11:23:16;;;;;;;1.98;1.80;;;;;;;29.07;100.00;94343.84;5055689;28;20378;-79
2023/07/04 11:25:42;;;;;;;2.47;1.95;;;;;;;29.64;100.00;94405.34;5055548;28;20040;-82
2023/07/04 11:28:16;;;;;;;2.47;1.73;;;;;;;29.10;100.00;94396.59;5055990;28;20021;-80
2023/07/04 11:30:45;;;;;;;1.65;1.50;;;;;;;28.95;100.00;94359.69;5054466;28;20112;-78
2023/07/04 11:33:41;;;;;;;1.90;1.80;;;;;;;28.43;100.00;94308.88;5046237;28;20037;-79